sensor_id;sensor_type;location;lat;lon;timestamp;P1;durP1;ratioP1;P2;durP2;ratioP2
18879;SDS011;9572;52.378;13.404;2023-06-22T00:00:53;18.50;;;16.60;;
18879;SDS011;9572;52.378;13.404;2023-06-22T00:03:21;18.38;;;16.40;;
18879;SDS011;9572;52.378;13.404;2023-06-22T00:05:49;18.15;;;16.17;;
18879;SDS011;9572;52.378;13.404;2023-06-22T00:08:17;17.85;;;15.80;;
18879;SDS011;9572;52.378;13.404;2023-06-22T00:10:44;18.60;;;15.60;;
18879;SDS011;9572;52.378;13.404;2023-06-22T00:13:12;19.08;;;16.63;;
18879;SDS011;9572;52.378;13.404;2023-06-22T00:15:41;17.98;;;16.08;;
18879;SDS011;9572;52.378;13.404;2023-06-22T00:18:10;16.75;;;15.02;;
18879;SDS011;9572;52.378;13.404;2023-06-22T00:20:38;18.98;;;15.25;;
18879;SDS011;9572;52.378;13.404;2023-06-22T00:23:06;16.50;;;14.73;;
18879;SDS011;9572;52.378;13.404;2023-06-22T00:25:34;16.52;;;14.73;;
18879;SDS011;9572;52.378;13.404;2023-06-22T00:28:01;16.05;;;14.35;;
18879;SDS011;9572;52.378;13.404;2023-06-22T00:30:29;15.60;;;14.00;;
18879;SDS011;9572;52.378;13.404;2023-06-22T00:32:57;17.88;;;14.32;;
18879;SDS011;9572;52.378;13.404;2023-06-22T00:35:27;14.90;;;13.38;;
18879;SDS011;9572;52.378;13.404;2023-06-22T00:37:55;18.08;;;14.82;;
18879;SDS011;9572;52.378;13.404;2023-06-22T00:40:25;25.92;;;14.73;;
18879;SDS011;9572;52.378;13.404;2023-06-22T00:42:53;16.20;;;13.65;;
18879;SDS011;9572;52.378;13.404;2023-06-22T00:45:20;15.48;;;13.85;;
18879;SDS011;9572;52.378;13.404;2023-06-22T00:47:48;15.35;;;13.82;;
18879;SDS011;9572;52.378;13.404;2023-06-22T00:50:17;14.80;;;13.23;;
18879;SDS011;9572;52.378;13.404;2023-06-22T00:52:50;14.57;;;13.05;;
18879;SDS011;9572;52.378;13.404;2023-06-22T00:55:19;13.38;;;11.98;;
18879;SDS011;9572;52.378;13.404;2023-06-22T00:57:47;11.32;;;10.23;;
18879;SDS011;9572;52.378;13.404;2023-06-22T01:00:14;15.40;;;11.27;;
18879;SDS011;9572;52.378;13.404;2023-06-22T01:02:44;12.48;;;10.15;;
18879;SDS011;9572;52.378;13.404;2023-06-22T01:05:12;13.40;;;10.10;;
18879;SDS011;9572;52.378;13.404;2023-06-22T01:07:40;10.20;;;9.07;;
18879;SDS011;9572;52.378;13.404;2023-06-22T01:10:15;12.50;;;9.82;;
18879;SDS011;9572;52.378;13.404;2023-06-22T01:12:48;11.57;;;9.27;;
18879;SDS011;9572;52.378;13.404;2023-06-22T01:15:21;10.32;;;9.30;;
18879;SDS011;9572;52.378;13.404;2023-06-22T01:17:53;10.98;;;9.82;;
18879;SDS011;9572;52.378;13.404;2023-06-22T01:20:22;10.60;;;9.50;;
18879;SDS011;9572;52.378;13.404;2023-06-22T01:22:56;10.73;;;9.65;;
18879;SDS011;9572;52.378;13.404;2023-06-22T01:25:36;10.50;;;9.50;;
18879;SDS011;9572;52.378;13.404;2023-06-22T01:28:17;12.20;;;10.98;;
18879;SDS011;9572;52.378;13.404;2023-06-22T01:30:54;13.43;;;11.85;;
18879;SDS011;9572;52.378;13.404;2023-06-22T01:33:31;12.50;;;11.23;;
18879;SDS011;9572;52.378;13.404;2023-06-22T01:36:00;12.43;;;10.82;;
18879;SDS011;9572;52.378;13.404;2023-06-22T01:38:28;11.02;;;9.93;;
18879;SDS011;9572;52.378;13.404;2023-06-22T01:40:56;10.63;;;9.63;;
18879;SDS011;9572;52.378;13.404;2023-06-22T01:43:24;12.90;;;10.60;;
18879;SDS011;9572;52.378;13.404;2023-06-22T01:45:54;12.50;;;10.88;;
18879;SDS011;9572;52.378;13.404;2023-06-22T01:48:22;11.70;;;10.25;;
18879;SDS011;9572;52.378;13.404;2023-06-22T01:50:51;12.60;;;10.73;;
18879;SDS011;9572;52.378;13.404;2023-06-22T01:53:20;11.52;;;10.18;;
18879;SDS011;9572;52.378;13.404;2023-06-22T01:55:47;11.65;;;10.48;;
18879;SDS011;9572;52.378;13.404;2023-06-22T01:58:14;11.15;;;10.05;;
18879;SDS011;9572;52.378;13.404;2023-06-22T02:00:48;11.05;;;9.55;;
18879;SDS011;9572;52.378;13.404;2023-06-22T02:03:19;11.43;;;9.82;;
18879;SDS011;9572;52.378;13.404;2023-06-22T02:05:53;10.98;;;9.88;;
18879;SDS011;9572;52.378;13.404;2023-06-22T02:08:25;10.27;;;9.27;;
18879;SDS011;9572;52.378;13.404;2023-06-22T02:10:56;10.35;;;9.15;;
18879;SDS011;9572;52.378;13.404;2023-06-22T02:13:26;12.10;;;9.88;;
18879;SDS011;9572;52.378;13.404;2023-06-22T02:15:53;10.07;;;9.07;;
18879;SDS011;9572;52.378;13.404;2023-06-22T02:18:22;11.25;;;9.80;;
18879;SDS011;9572;52.378;13.404;2023-06-22T02:20:50;10.82;;;9.73;;
18879;SDS011;9572;52.378;13.404;2023-06-22T02:23:17;12.63;;;10.57;;
18879;SDS011;9572;52.378;13.404;2023-06-22T02:25:44;13.13;;;11.10;;
18879;SDS011;9572;52.378;13.404;2023-06-22T02:28:11;16.08;;;11.10;;
18879;SDS011;9572;52.378;13.404;2023-06-22T02:30:39;14.13;;;10.20;;
18879;SDS011;9572;52.378;13.404;2023-06-22T02:33:05;14.80;;;11.95;;
18879;SDS011;9572;52.378;13.404;2023-06-22T02:35:34;12.63;;;11.30;;
18879;SDS011;9572;52.378;13.404;2023-06-22T02:38:02;12.93;;;11.55;;
18879;SDS011;9572;52.378;13.404;2023-06-22T02:40:30;13.05;;;10.85;;
18879;SDS011;9572;52.378;13.404;2023-06-22T02:42:58;13.73;;;10.90;;
18879;SDS011;9572;52.378;13.404;2023-06-22T02:45:27;12.90;;;11.50;;
18879;SDS011;9572;52.378;13.404;2023-06-22T02:47:54;12.90;;;11.07;;
18879;SDS011;9572;52.378;13.404;2023-06-22T02:50:21;12.07;;;10.88;;
18879;SDS011;9572;52.378;13.404;2023-06-22T02:52:50;11.85;;;10.30;;
18879;SDS011;9572;52.378;13.404;2023-06-22T02:55:17;13.30;;;10.40;;
18879;SDS011;9572;52.378;13.404;2023-06-22T02:57:44;13.13;;;10.38;;
18879;SDS011;9572;52.378;13.404;2023-06-22T03:00:13;11.25;;;10.10;;
18879;SDS011;9572;52.378;13.404;2023-06-22T03:02:43;12.73;;;11.38;;
18879;SDS011;9572;52.378;13.404;2023-06-22T03:05:10;11.77;;;10.43;;
18879;SDS011;9572;52.378;13.404;2023-06-22T03:07:38;13.70;;;12.20;;
18879;SDS011;9572;52.378;13.404;2023-06-22T03:10:08;11.77;;;10.43;;
18879;SDS011;9572;52.378;13.404;2023-06-22T03:12:36;13.35;;;11.48;;
18879;SDS011;9572;52.378;13.404;2023-06-22T03:15:04;15.27;;;12.13;;
18879;SDS011;9572;52.378;13.404;2023-06-22T03:17:32;14.07;;;11.10;;
18879;SDS011;9572;52.378;13.404;2023-06-22T03:20:00;12.60;;;10.77;;
18879;SDS011;9572;52.378;13.404;2023-06-22T03:22:28;12.45;;;11.05;;
18879;SDS011;9572;52.378;13.404;2023-06-22T03:24:55;17.15;;;11.77;;
18879;SDS011;9572;52.378;13.404;2023-06-22T03:27:23;12.40;;;11.20;;
18879;SDS011;9572;52.378;13.404;2023-06-22T03:29:50;20.80;;;12.73;;
18879;SDS011;9572;52.378;13.404;2023-06-22T03:32:17;13.88;;;12.23;;
18879;SDS011;9572;52.378;13.404;2023-06-22T03:34:45;14.02;;;12.00;;
18879;SDS011;9572;52.378;13.404;2023-06-22T03:37:13;15.55;;;12.52;;
18879;SDS011;9572;52.378;13.404;2023-06-22T03:39:40;20.20;;;13.43;;
18879;SDS011;9572;52.378;13.404;2023-06-22T03:42:08;13.55;;;12.05;;
18879;SDS011;9572;52.378;13.404;2023-06-22T03:44:45;13.70;;;12.30;;
18879;SDS011;9572;52.378;13.404;2023-06-22T03:47:12;12.57;;;11.13;;
18879;SDS011;9572;52.378;13.404;2023-06-22T03:49:40;12.52;;;11.23;;
18879;SDS011;9572;52.378;13.404;2023-06-22T03:52:07;13.80;;;12.30;;
18879;SDS011;9572;52.378;13.404;2023-06-22T03:54:34;12.50;;;11.23;;
18879;SDS011;9572;52.378;13.404;2023-06-22T03:57:01;13.10;;;11.80;;
18879;SDS011;9572;52.378;13.404;2023-06-22T03:59:28;14.88;;;12.57;;
18879;SDS011;9572;52.378;13.404;2023-06-22T04:01:57;12.95;;;11.65;;
18879;SDS011;9572;52.378;13.404;2023-06-22T04:04:24;13.05;;;11.60;;
18879;SDS011;9572;52.378;13.404;2023-06-22T04:06:51;14.65;;;12.25;;
18879;SDS011;9572;52.378;13.404;2023-06-22T04:09:18;13.82;;;11.90;;
18879;SDS011;9572;52.378;13.404;2023-06-22T04:11:46;13.18;;;11.88;;
18879;SDS011;9572;52.378;13.404;2023-06-22T04:14:13;13.85;;;12.25;;
18879;SDS011;9572;52.378;13.404;2023-06-22T04:16:40;15.95;;;12.45;;
18879;SDS011;9572;52.378;13.404;2023-06-22T04:19:08;12.68;;;11.32;;
18879;SDS011;9572;52.378;13.404;2023-06-22T04:21:41;14.68;;;12.70;;
18879;SDS011;9572;52.378;13.404;2023-06-22T04:24:08;13.43;;;12.13;;
18879;SDS011;9572;52.378;13.404;2023-06-22T04:26:35;17.95;;;13.68;;
18879;SDS011;9572;52.378;13.404;2023-06-22T04:29:03;14.60;;;12.95;;
18879;SDS011;9572;52.378;13.404;2023-06-22T04:31:30;16.52;;;14.40;;
18879;SDS011;9572;52.378;13.404;2023-06-22T04:34:01;13.80;;;12.32;;
18879;SDS011;9572;52.378;13.404;2023-06-22T04:36:36;13.68;;;12.25;;
18879;SDS011;9572;52.378;13.404;2023-06-22T04:39:04;15.05;;;11.77;;
18879;SDS011;9572;52.378;13.404;2023-06-22T04:41:34;15.70;;;13.57;;
18879;SDS011;9572;52.378;13.404;2023-06-22T04:44:09;15.98;;;13.13;;
18879;SDS011;9572;52.378;13.404;2023-06-22T04:46:36;15.25;;;12.55;;
18879;SDS011;9572;52.378;13.404;2023-06-22T04:49:05;14.73;;;13.10;;
18879;SDS011;9572;52.378;13.404;2023-06-22T04:51:37;15.07;;;13.48;;
18879;SDS011;9572;52.378;13.404;2023-06-22T04:54:05;15.52;;;13.55;;
18879;SDS011;9572;52.378;13.404;2023-06-22T04:56:33;18.42;;;13.93;;
18879;SDS011;9572;52.378;13.404;2023-06-22T04:59:00;15.02;;;12.23;;
18879;SDS011;9572;52.378;13.404;2023-06-22T05:01:28;13.63;;;11.48;;
18879;SDS011;9572;52.378;13.404;2023-06-22T05:03:57;15.55;;;11.88;;
18879;SDS011;9572;52.378;13.404;2023-06-22T05:06:26;11.02;;;9.93;;
18879;SDS011;9572;52.378;13.404;2023-06-22T05:08:55;14.52;;;11.35;;
18879;SDS011;9572;52.378;13.404;2023-06-22T05:11:24;15.95;;;13.32;;
18879;SDS011;9572;52.378;13.404;2023-06-22T05:13:51;13.93;;;11.07;;
18879;SDS011;9572;52.378;13.404;2023-06-22T05:16:18;13.23;;;9.82;;
18879;SDS011;9572;52.378;13.404;2023-06-22T05:18:49;11.20;;;9.10;;
18879;SDS011;9572;52.378;13.404;2023-06-22T05:21:17;9.82;;;8.75;;
18879;SDS011;9572;52.378;13.404;2023-06-22T05:23:44;10.50;;;9.18;;
18879;SDS011;9572;52.378;13.404;2023-06-22T05:26:13;11.05;;;8.60;;
18879;SDS011;9572;52.378;13.404;2023-06-22T05:28:40;11.38;;;9.45;;
18879;SDS011;9572;52.378;13.404;2023-06-22T05:31:11;8.70;;;7.80;;
18879;SDS011;9572;52.378;13.404;2023-06-22T05:33:38;10.75;;;9.60;;
18879;SDS011;9572;52.378;13.404;2023-06-22T05:36:05;10.48;;;8.00;;
18879;SDS011;9572;52.378;13.404;2023-06-22T05:38:32;9.98;;;8.32;;
18879;SDS011;9572;52.378;13.404;2023-06-22T05:41:00;8.38;;;7.53;;
18879;SDS011;9572;52.378;13.404;2023-06-22T05:43:28;8.93;;;8.10;;
18879;SDS011;9572;52.378;13.404;2023-06-22T05:45:55;9.77;;;7.93;;
18879;SDS011;9572;52.378;13.404;2023-06-22T05:48:22;8.93;;;7.45;;
18879;SDS011;9572;52.378;13.404;2023-06-22T05:50:49;9.07;;;7.20;;
18879;SDS011;9572;52.378;13.404;2023-06-22T05:53:16;8.25;;;6.88;;
18879;SDS011;9572;52.378;13.404;2023-06-22T05:55:43;7.65;;;6.47;;
18879;SDS011;9572;52.378;13.404;2023-06-22T05:58:10;9.30;;;7.43;;
18879;SDS011;9572;52.378;13.404;2023-06-22T06:00:39;9.00;;;7.00;;
18879;SDS011;9572;52.378;13.404;2023-06-22T06:03:08;11.75;;;7.95;;
18879;SDS011;9572;52.378;13.404;2023-06-22T06:05:36;9.85;;;8.52;;
18879;SDS011;9572;52.378;13.404;2023-06-22T06:08:04;11.85;;;7.97;;
18879;SDS011;9572;52.378;13.404;2023-06-22T06:10:32;8.30;;;7.32;;
18879;SDS011;9572;52.378;13.404;2023-06-22T06:13:00;11.27;;;7.22;;
18879;SDS011;9572;52.378;13.404;2023-06-22T06:15:29;7.97;;;6.97;;
18879;SDS011;9572;52.378;13.404;2023-06-22T06:17:57;9.88;;;6.30;;
18879;SDS011;9572;52.378;13.404;2023-06-22T06:20:25;9.50;;;7.15;;
18879;SDS011;9572;52.378;13.404;2023-06-22T06:22:54;9.50;;;6.82;;
18879;SDS011;9572;52.378;13.404;2023-06-22T06:25:22;8.93;;;6.68;;
18879;SDS011;9572;52.378;13.404;2023-06-22T06:27:50;7.72;;;6.88;;
18879;SDS011;9572;52.378;13.404;2023-06-22T06:30:19;8.95;;;7.03;;
18879;SDS011;9572;52.378;13.404;2023-06-22T06:32:47;9.25;;;6.70;;
18879;SDS011;9572;52.378;13.404;2023-06-22T06:35:15;9.60;;;6.50;;
18879;SDS011;9572;52.378;13.404;2023-06-22T06:37:43;8.27;;;6.00;;
18879;SDS011;9572;52.378;13.404;2023-06-22T06:40:12;8.95;;;6.18;;
18879;SDS011;9572;52.378;13.404;2023-06-22T06:42:40;8.05;;;6.50;;
18879;SDS011;9572;52.378;13.404;2023-06-22T06:45:10;7.43;;;5.90;;
18879;SDS011;9572;52.378;13.404;2023-06-22T06:47:38;10.20;;;6.22;;
18879;SDS011;9572;52.378;13.404;2023-06-22T06:50:05;8.55;;;5.47;;
18879;SDS011;9572;52.378;13.404;2023-06-22T06:52:35;7.03;;;5.40;;
18879;SDS011;9572;52.378;13.404;2023-06-22T06:55:02;9.30;;;5.32;;
18879;SDS011;9572;52.378;13.404;2023-06-22T06:57:33;5.70;;;5.20;;
18879;SDS011;9572;52.378;13.404;2023-06-22T07:00:02;7.57;;;4.85;;
18879;SDS011;9572;52.378;13.404;2023-06-22T07:02:34;6.25;;;4.75;;
18879;SDS011;9572;52.378;13.404;2023-06-22T07:05:01;5.55;;;4.80;;
18879;SDS011;9572;52.378;13.404;2023-06-22T07:07:29;5.72;;;5.10;;
18879;SDS011;9572;52.378;13.404;2023-06-22T07:09:57;7.45;;;5.50;;
18879;SDS011;9572;52.378;13.404;2023-06-22T07:12:24;6.60;;;4.72;;
18879;SDS011;9572;52.378;13.404;2023-06-22T07:14:51;9.05;;;4.70;;
18879;SDS011;9572;52.378;13.404;2023-06-22T07:17:19;5.47;;;4.45;;
18879;SDS011;9572;52.378;13.404;2023-06-22T07:19:46;5.70;;;4.50;;
18879;SDS011;9572;52.378;13.404;2023-06-22T07:22:12;6.75;;;4.57;;
18879;SDS011;9572;52.378;13.404;2023-06-22T07:24:39;5.10;;;4.18;;
18879;SDS011;9572;52.378;13.404;2023-06-22T07:27:08;8.07;;;4.20;;
18879;SDS011;9572;52.378;13.404;2023-06-22T07:29:36;4.00;;;3.65;;
18879;SDS011;9572;52.378;13.404;2023-06-22T07:32:05;6.38;;;3.15;;
18879;SDS011;9572;52.378;13.404;2023-06-22T07:34:33;6.28;;;3.80;;
18879;SDS011;9572;52.378;13.404;2023-06-22T07:37:00;4.05;;;3.42;;
18879;SDS011;9572;52.378;13.404;2023-06-22T07:39:27;5.93;;;4.15;;
18879;SDS011;9572;52.378;13.404;2023-06-22T07:41:54;5.25;;;3.90;;
18879;SDS011;9572;52.378;13.404;2023-06-22T07:44:23;4.50;;;3.45;;
18879;SDS011;9572;52.378;13.404;2023-06-22T07:46:50;4.43;;;3.72;;
18879;SDS011;9572;52.378;13.404;2023-06-22T07:49:17;3.88;;;3.58;;
18879;SDS011;9572;52.378;13.404;2023-06-22T07:51:44;4.85;;;3.40;;
18879;SDS011;9572;52.378;13.404;2023-06-22T07:54:11;3.13;;;2.92;;
18879;SDS011;9572;52.378;13.404;2023-06-22T07:56:37;5.07;;;3.47;;
18879;SDS011;9572;52.378;13.404;2023-06-22T07:59:04;3.95;;;3.15;;
18879;SDS011;9572;52.378;13.404;2023-06-22T08:01:33;4.07;;;3.65;;
18879;SDS011;9572;52.378;13.404;2023-06-22T08:04:00;4.03;;;3.55;;
18879;SDS011;9572;52.378;13.404;2023-06-22T08:06:26;6.47;;;3.20;;
18879;SDS011;9572;52.378;13.404;2023-06-22T08:08:57;3.92;;;3.00;;
18879;SDS011;9572;52.378;13.404;2023-06-22T08:11:24;3.50;;;3.20;;
18879;SDS011;9572;52.378;13.404;2023-06-22T08:13:51;4.03;;;3.38;;
18879;SDS011;9572;52.378;13.404;2023-06-22T08:16:20;4.88;;;3.30;;
18879;SDS011;9572;52.378;13.404;2023-06-22T08:18:49;3.70;;;3.10;;
18879;SDS011;9572;52.378;13.404;2023-06-22T08:21:16;4.93;;;2.75;;
18879;SDS011;9572;52.378;13.404;2023-06-22T08:23:43;3.00;;;2.80;;
18879;SDS011;9572;52.378;13.404;2023-06-22T08:26:10;4.07;;;2.70;;
18879;SDS011;9572;52.378;13.404;2023-06-22T08:28:37;3.00;;;2.75;;
18879;SDS011;9572;52.378;13.404;2023-06-22T08:31:04;4.18;;;3.75;;
18879;SDS011;9572;52.378;13.404;2023-06-22T08:33:31;5.68;;;3.00;;
18879;SDS011;9572;52.378;13.404;2023-06-22T08:35:59;3.40;;;2.80;;
18879;SDS011;9572;52.378;13.404;2023-06-22T08:38:26;4.95;;;3.00;;
18879;SDS011;9572;52.378;13.404;2023-06-22T08:40:53;6.65;;;3.00;;
18879;SDS011;9572;52.378;13.404;2023-06-22T08:43:20;4.40;;;3.08;;
18879;SDS011;9572;52.378;13.404;2023-06-22T08:45:47;3.17;;;2.88;;
18879;SDS011;9572;52.378;13.404;2023-06-22T08:48:14;3.28;;;2.83;;
18879;SDS011;9572;52.378;13.404;2023-06-22T08:50:41;3.30;;;3.00;;
18879;SDS011;9572;52.378;13.404;2023-06-22T08:53:09;4.82;;;3.15;;
18879;SDS011;9572;52.378;13.404;2023-06-22T08:55:36;4.93;;;3.28;;
18879;SDS011;9572;52.378;13.404;2023-06-22T08:58:03;4.60;;;2.95;;
18879;SDS011;9572;52.378;13.404;2023-06-22T09:00:31;3.63;;;2.72;;
18879;SDS011;9572;52.378;13.404;2023-06-22T09:03:00;3.20;;;2.90;;
18879;SDS011;9572;52.378;13.404;2023-06-22T09:05:26;3.13;;;2.58;;
18879;SDS011;9572;52.378;13.404;2023-06-22T09:07:53;2.85;;;2.58;;
18879;SDS011;9572;52.378;13.404;2023-06-22T09:10:25;3.00;;;2.75;;
18879;SDS011;9572;52.378;13.404;2023-06-22T09:12:52;4.32;;;3.88;;
18879;SDS011;9572;52.378;13.404;2023-06-22T09:15:19;3.28;;;2.80;;
18879;SDS011;9572;52.378;13.404;2023-06-22T09:17:46;2.72;;;2.53;;
18879;SDS011;9572;52.378;13.404;2023-06-22T09:20:13;2.78;;;2.58;;
18879;SDS011;9572;52.378;13.404;2023-06-22T09:22:40;4.72;;;3.00;;
18879;SDS011;9572;52.378;13.404;2023-06-22T09:25:08;3.40;;;2.70;;
18879;SDS011;9572;52.378;13.404;2023-06-22T09:27:37;3.33;;;3.03;;
18879;SDS011;9572;52.378;13.404;2023-06-22T09:30:04;2.50;;;2.30;;
18879;SDS011;9572;52.378;13.404;2023-06-22T09:32:32;3.70;;;3.10;;
18879;SDS011;9572;52.378;13.404;2023-06-22T09:35:02;4.10;;;3.03;;
18879;SDS011;9572;52.378;13.404;2023-06-22T09:37:32;3.20;;;2.90;;
18879;SDS011;9572;52.378;13.404;2023-06-22T09:39:59;4.70;;;3.17;;
18879;SDS011;9572;52.378;13.404;2023-06-22T09:42:26;4.70;;;2.90;;
18879;SDS011;9572;52.378;13.404;2023-06-22T09:44:54;5.20;;;2.90;;
18879;SDS011;9572;52.378;13.404;2023-06-22T09:47:21;3.42;;;3.13;;
18879;SDS011;9572;52.378;13.404;2023-06-22T09:49:48;3.42;;;2.90;;
18879;SDS011;9572;52.378;13.404;2023-06-22T09:52:15;2.70;;;2.50;;
18879;SDS011;9572;52.378;13.404;2023-06-22T09:54:42;6.25;;;3.20;;
18879;SDS011;9572;52.378;13.404;2023-06-22T09:57:09;2.97;;;2.60;;
18879;SDS011;9572;52.378;13.404;2023-06-22T09:59:37;3.28;;;2.97;;
18879;SDS011;9572;52.378;13.404;2023-06-22T10:02:08;4.55;;;2.90;;
18879;SDS011;9572;52.378;13.404;2023-06-22T10:04:35;4.05;;;2.78;;
18879;SDS011;9572;52.378;13.404;2023-06-22T10:07:02;4.47;;;2.70;;
18879;SDS011;9572;52.378;13.404;2023-06-22T10:09:29;3.10;;;2.85;;
18879;SDS011;9572;52.378;13.404;2023-06-22T10:11:56;7.05;;;3.22;;
18879;SDS011;9572;52.378;13.404;2023-06-22T10:14:23;3.65;;;2.60;;
18879;SDS011;9572;52.378;13.404;2023-06-22T10:16:52;3.53;;;2.92;;
18879;SDS011;9572;52.378;13.404;2023-06-22T10:19:20;4.25;;;3.33;;
18879;SDS011;9572;52.378;13.404;2023-06-22T10:21:47;2.78;;;2.58;;
18879;SDS011;9572;52.378;13.404;2023-06-22T10:24:14;3.38;;;3.08;;
18879;SDS011;9572;52.378;13.404;2023-06-22T10:26:41;4.43;;;2.80;;
18879;SDS011;9572;52.378;13.404;2023-06-22T10:29:08;6.03;;;3.10;;
18879;SDS011;9572;52.378;13.404;2023-06-22T10:31:35;3.88;;;3.42;;
18879;SDS011;9572;52.378;13.404;2023-06-22T10:34:02;4.60;;;3.30;;
18879;SDS011;9572;52.378;13.404;2023-06-22T10:36:30;3.05;;;2.80;;
18879;SDS011;9572;52.378;13.404;2023-06-22T10:38:57;3.13;;;2.83;;
18879;SDS011;9572;52.378;13.404;2023-06-22T10:41:26;3.10;;;2.80;;
18879;SDS011;9572;52.378;13.404;2023-06-22T10:43:55;3.03;;;2.78;;
18879;SDS011;9572;52.378;13.404;2023-06-22T10:46:23;3.50;;;3.20;;
18879;SDS011;9572;52.378;13.404;2023-06-22T10:48:50;3.45;;;2.80;;
18879;SDS011;9572;52.378;13.404;2023-06-22T10:51:19;3.45;;;3.15;;
18879;SDS011;9572;52.378;13.404;2023-06-22T10:53:47;4.57;;;2.85;;
18879;SDS011;9572;52.378;13.404;2023-06-22T10:56:16;3.92;;;2.80;;
18879;SDS011;9572;52.378;13.404;2023-06-22T10:58:44;3.70;;;3.15;;
18879;SDS011;9572;52.378;13.404;2023-06-22T11:01:14;4.25;;;3.10;;
18879;SDS011;9572;52.378;13.404;2023-06-22T11:03:41;3.38;;;2.90;;
18879;SDS011;9572;52.378;13.404;2023-06-22T11:06:08;4.55;;;3.03;;
18879;SDS011;9572;52.378;13.404;2023-06-22T11:08:35;3.83;;;3.10;;
18879;SDS011;9572;52.378;13.404;2023-06-22T11:11:03;3.53;;;2.70;;
18879;SDS011;9572;52.378;13.404;2023-06-22T11:13:30;3.30;;;3.00;;
18879;SDS011;9572;52.378;13.404;2023-06-22T11:15:57;3.17;;;2.90;;
18879;SDS011;9572;52.378;13.404;2023-06-22T11:18:24;3.88;;;3.50;;
18879;SDS011;9572;52.378;13.404;2023-06-22T11:20:51;3.60;;;2.92;;
18879;SDS011;9572;52.378;13.404;2023-06-22T11:23:18;4.70;;;3.25;;
18879;SDS011;9572;52.378;13.404;2023-06-22T11:25:45;3.80;;;3.00;;
18879;SDS011;9572;52.378;13.404;2023-06-22T11:28:13;3.60;;;3.22;;
18879;SDS011;9572;52.378;13.404;2023-06-22T11:30:40;3.45;;;3.00;;
18879;SDS011;9572;52.378;13.404;2023-06-22T11:33:07;3.63;;;3.00;;
18879;SDS011;9572;52.378;13.404;2023-06-22T11:35:34;3.67;;;3.22;;
18879;SDS011;9572;52.378;13.404;2023-06-22T11:38:01;4.05;;;3.45;;
18879;SDS011;9572;52.378;13.404;2023-06-22T11:40:28;4.85;;;3.40;;
18879;SDS011;9572;52.378;13.404;2023-06-22T11:42:55;3.45;;;3.15;;
18879;SDS011;9572;52.378;13.404;2023-06-22T11:45:24;4.03;;;3.20;;
18879;SDS011;9572;52.378;13.404;2023-06-22T11:47:51;4.43;;;3.17;;
18879;SDS011;9572;52.378;13.404;2023-06-22T11:50:18;3.90;;;3.55;;
18879;SDS011;9572;52.378;13.404;2023-06-22T11:52:44;3.58;;;3.25;;
18879;SDS011;9572;52.378;13.404;2023-06-22T11:55:11;3.50;;;3.20;;
18879;SDS011;9572;52.378;13.404;2023-06-22T11:57:39;5.40;;;3.30;;
18879;SDS011;9572;52.378;13.404;2023-06-22T12:00:19;4.45;;;3.08;;
18879;SDS011;9572;52.378;13.404;2023-06-22T12:02:50;3.28;;;2.97;;
18879;SDS011;9572;52.378;13.404;2023-06-22T12:05:17;3.60;;;3.20;;
18879;SDS011;9572;52.378;13.404;2023-06-22T12:07:45;4.80;;;3.10;;
18879;SDS011;9572;52.378;13.404;2023-06-22T12:10:12;4.60;;;3.42;;
18879;SDS011;9572;52.378;13.404;2023-06-22T12:12:39;3.78;;;2.90;;
18879;SDS011;9572;52.378;13.404;2023-06-22T12:15:07;3.05;;;2.85;;
18879;SDS011;9572;52.378;13.404;2023-06-22T12:17:35;7.30;;;3.28;;
18879;SDS011;9572;52.378;13.404;2023-06-22T12:20:04;4.05;;;3.60;;
18879;SDS011;9572;52.378;13.404;2023-06-22T12:22:32;3.55;;;3.25;;
18879;SDS011;9572;52.378;13.404;2023-06-22T12:24:59;7.53;;;3.28;;
18879;SDS011;9572;52.378;13.404;2023-06-22T12:27:26;3.40;;;3.10;;
18879;SDS011;9572;52.378;13.404;2023-06-22T12:29:55;5.95;;;3.10;;
18879;SDS011;9572;52.378;13.404;2023-06-22T12:32:22;3.83;;;3.00;;
18879;SDS011;9572;52.378;13.404;2023-06-22T12:34:52;3.33;;;2.88;;
18879;SDS011;9572;52.378;13.404;2023-06-22T12:37:20;4.85;;;3.53;;
18879;SDS011;9572;52.378;13.404;2023-06-22T12:39:47;3.70;;;3.40;;
18879;SDS011;9572;52.378;13.404;2023-06-22T12:42:14;5.90;;;3.85;;
18879;SDS011;9572;52.378;13.404;2023-06-22T12:44:42;3.63;;;3.38;;
18879;SDS011;9572;52.378;13.404;2023-06-22T12:47:09;3.40;;;3.10;;
18879;SDS011;9572;52.378;13.404;2023-06-22T12:49:36;4.03;;;3.63;;
18879;SDS011;9572;52.378;13.404;2023-06-22T12:52:08;4.72;;;3.50;;
18879;SDS011;9572;52.378;13.404;2023-06-22T12:54:37;3.72;;;3.38;;
18879;SDS011;9572;52.378;13.404;2023-06-22T12:57:04;4.13;;;3.72;;
18879;SDS011;9572;52.378;13.404;2023-06-22T12:59:31;3.83;;;3.53;;
18879;SDS011;9572;52.378;13.404;2023-06-22T13:01:58;4.35;;;3.97;;
18879;SDS011;9572;52.378;13.404;2023-06-22T13:04:25;3.90;;;3.50;;
18879;SDS011;9572;52.378;13.404;2023-06-22T13:06:52;5.22;;;3.53;;
18879;SDS011;9572;52.378;13.404;2023-06-22T13:09:19;6.72;;;3.90;;
18879;SDS011;9572;52.378;13.404;2023-06-22T13:11:47;4.30;;;3.65;;
18879;SDS011;9572;52.378;13.404;2023-06-22T13:14:14;3.67;;;3.38;;
18879;SDS011;9572;52.378;13.404;2023-06-22T13:16:42;7.30;;;3.50;;
18879;SDS011;9572;52.378;13.404;2023-06-22T13:19:09;3.97;;;3.55;;
18879;SDS011;9572;52.378;13.404;2023-06-22T13:21:36;4.03;;;3.67;;
18879;SDS011;9572;52.378;13.404;2023-06-22T13:24:03;3.90;;;3.53;;
18879;SDS011;9572;52.378;13.404;2023-06-22T13:26:31;4.15;;;3.78;;
18879;SDS011;9572;52.378;13.404;2023-06-22T13:29:00;3.97;;;3.58;;
18879;SDS011;9572;52.378;13.404;2023-06-22T13:31:27;10.82;;;5.63;;
18879;SDS011;9572;52.378;13.404;2023-06-22T13:33:54;6.50;;;4.32;;
18879;SDS011;9572;52.378;13.404;2023-06-22T13:36:20;4.40;;;4.07;;
18879;SDS011;9572;52.378;13.404;2023-06-22T13:38:48;5.38;;;4.15;;
18879;SDS011;9572;52.378;13.404;2023-06-22T13:41:15;4.63;;;3.63;;
18879;SDS011;9572;52.378;13.404;2023-06-22T13:43:42;4.57;;;4.00;;
18879;SDS011;9572;52.378;13.404;2023-06-22T13:46:10;4.35;;;3.80;;
18879;SDS011;9572;52.378;13.404;2023-06-22T13:48:37;4.35;;;3.83;;
18879;SDS011;9572;52.378;13.404;2023-06-22T13:51:04;4.30;;;3.90;;
18879;SDS011;9572;52.378;13.404;2023-06-22T13:53:31;7.07;;;3.92;;
18879;SDS011;9572;52.378;13.404;2023-06-22T13:55:58;4.40;;;4.10;;
18879;SDS011;9572;52.378;13.404;2023-06-22T13:58:25;4.68;;;3.60;;
18879;SDS011;9572;52.378;13.404;2023-06-22T14:00:52;4.93;;;4.07;;
18879;SDS011;9572;52.378;13.404;2023-06-22T14:03:20;4.22;;;3.65;;
18879;SDS011;9572;52.378;13.404;2023-06-22T14:05:47;4.20;;;3.80;;
18879;SDS011;9572;52.378;13.404;2023-06-22T14:08:14;3.90;;;3.50;;
18879;SDS011;9572;52.378;13.404;2023-06-22T14:10:41;4.20;;;3.90;;
18879;SDS011;9572;52.378;13.404;2023-06-22T14:13:08;4.95;;;3.38;;
18879;SDS011;9572;52.378;13.404;2023-06-22T14:15:35;4.70;;;3.78;;
18879;SDS011;9572;52.378;13.404;2023-06-22T14:18:02;4.40;;;4.00;;
18879;SDS011;9572;52.378;13.404;2023-06-22T14:20:30;4.53;;;4.13;;
18879;SDS011;9572;52.378;13.404;2023-06-22T14:22:57;5.22;;;4.07;;
18879;SDS011;9572;52.378;13.404;2023-06-22T14:25:24;5.43;;;4.38;;
18879;SDS011;9572;52.378;13.404;2023-06-22T14:27:51;4.95;;;4.03;;
18879;SDS011;9572;52.378;13.404;2023-06-22T14:30:18;4.25;;;3.85;;
18879;SDS011;9572;52.378;13.404;2023-06-22T14:32:45;3.90;;;3.63;;
18879;SDS011;9572;52.378;13.404;2023-06-22T14:35:12;4.25;;;3.85;;
18879;SDS011;9572;52.378;13.404;2023-06-22T14:37:40;5.80;;;4.13;;
18879;SDS011;9572;52.378;13.404;2023-06-22T14:40:07;5.70;;;4.65;;
18879;SDS011;9572;52.378;13.404;2023-06-22T14:42:35;5.95;;;3.88;;